createdAt,value
2022-10-18T00:09:06.170Z,9.80
2022-10-18T00:19:09.542Z,9.70
2022-10-18T00:29:14.702Z,9.50
2022-10-18T00:39:20.471Z,9.40
2022-10-18T00:49:27.363Z,9.40
2022-10-18T00:59:30.734Z,9.30
2022-10-18T01:09:39.680Z,9.20
2022-10-18T01:20:07.374Z,9.20
2022-10-18T01:30:38.008Z,9.10
2022-10-18T01:40:41.085Z,8.90
2022-10-18T01:50:44.336Z,8.80
2022-10-18T02:00:50.812Z,8.70
2022-10-18T02:10:58.748Z,8.80
2022-10-18T02:21:03.463Z,8.70
2022-10-18T02:31:14.771Z,8.50
2022-10-18T02:41:23.557Z,8.50
2022-10-18T02:51:26.874Z,8.50
2022-10-18T03:01:28.756Z,8.30
2022-10-18T03:11:32.510Z,8.20
2022-10-18T03:21:34.443Z,8.20
2022-10-18T03:31:37.809Z,8.10
2022-10-18T03:41:39.761Z,8.10
2022-10-18T03:51:43.018Z,8.00
2022-10-18T04:01:44.933Z,8.00
2022-10-18T04:11:50.055Z,7.80
2022-10-18T04:21:51.970Z,7.80
2022-10-18T04:31:55.265Z,7.80
2022-10-18T04:41:57.195Z,7.70
2022-10-18T04:52:00.577Z,7.40
2022-10-18T05:12:06.702Z,7.40
2022-10-18T05:22:08.628Z,7.30
2022-10-18T05:32:12.043Z,7.40
2022-10-18T05:42:14.008Z,7.30
2022-10-18T05:52:17.311Z,7.10
2022-10-18T06:02:19.252Z,7.00
2022-10-18T06:12:22.630Z,7.00
2022-10-18T06:22:24.566Z,7.00
2022-10-18T06:32:27.863Z,6.90
2022-10-18T06:42:29.964Z,6.90
2022-10-18T06:52:33.647Z,7.00
2022-10-18T07:02:35.894Z,7.00
2022-10-18T07:12:39.174Z,7.10
2022-10-18T07:22:41.109Z,7.20
2022-10-18T07:32:44.440Z,7.40
2022-10-18T07:42:46.366Z,7.70
2022-10-18T07:52:49.813Z,8.10
2022-10-18T08:02:56.074Z,8.40
2022-10-18T08:12:59.425Z,8.70
2022-10-18T08:23:01.321Z,9.10
2022-10-18T08:33:04.720Z,9.60
2022-10-18T08:43:17.032Z,10.10
2022-10-18T08:53:29.831Z,10.70
2022-10-18T11:40:41.366Z,16.50
2022-10-18T11:50:51.459Z,16.40
2022-10-18T12:01:01.508Z,16.40
2022-10-18T12:11:09.736Z,16.30
2022-10-18T12:21:13.617Z,16.40
2022-10-18T12:31:22.235Z,16.40
2022-10-18T12:41:28.350Z,16.50
2022-10-18T12:51:30.556Z,16.50
2022-10-18T13:02:18.543Z,16.40
2022-10-18T13:12:49.951Z,16.40
2022-10-18T13:23:05.089Z,16.50
2022-10-18T13:33:34.591Z,16.50
2022-10-18T13:54:47.887Z,16.50
2022-10-18T14:05:25.401Z,16.50
2022-10-18T14:15:35.347Z,16.50
2022-10-18T14:25:38.185Z,16.60
2022-10-18T14:35:41.595Z,16.50
2022-10-18T14:45:43.578Z,16.70
2022-10-18T14:55:55.270Z,16.80
2022-10-18T15:05:59.552Z,17.00
2022-10-18T15:16:03.276Z,17.10
2022-10-18T15:26:07.939Z,17.00
2022-10-18T15:36:20.314Z,16.70
2022-10-18T15:46:31.304Z,16.50
2022-10-18T15:56:35.909Z,16.00
2022-10-18T16:06:37.945Z,15.80
2022-10-18T16:16:41.391Z,15.50
2022-10-18T16:26:43.377Z,15.30
2022-10-18T16:36:46.750Z,15.10
2022-10-18T16:46:51.177Z,14.80
2022-10-18T16:56:57.235Z,14.60
2022-10-18T17:06:59.156Z,14.40
2022-10-18T17:17:02.451Z,14.10
2022-10-18T17:27:04.350Z,14.00
2022-10-18T17:37:08.180Z,13.80
2022-10-18T17:47:10.288Z,13.70
2022-10-18T17:57:13.637Z,13.40
2022-10-18T18:07:15.570Z,13.30
2022-10-18T18:17:28.563Z,13.10
2022-10-18T18:38:42.953Z,13.10
2022-10-18T18:48:44.896Z,13.20
2022-10-18T18:58:54.240Z,13.10
2022-10-18T19:08:56.799Z,12.90
2022-10-18T19:19:02.147Z,12.80
2022-10-18T19:29:07.596Z,12.70
2022-10-18T19:39:17.835Z,12.70
2022-10-18T19:49:19.812Z,12.70
2022-10-18T19:59:24.196Z,12.70
2022-10-18T20:09:26.191Z,12.70
2022-10-18T20:19:29.464Z,12.70
2022-10-18T20:29:31.502Z,12.60
2022-10-18T20:39:34.790Z,12.70
2022-10-18T20:49:36.789Z,12.60
2022-10-18T20:59:40.068Z,12.60
2022-10-18T21:09:41.953Z,12.50
2022-10-18T21:19:45.335Z,12.50
2022-10-18T21:29:48.708Z,12.50
2022-10-18T21:39:51.989Z,12.60
2022-10-18T21:49:53.909Z,12.70
2022-10-18T21:59:57.236Z,12.70
2022-10-18T22:09:59.178Z,12.70
2022-10-18T22:20:02.510Z,12.80
2022-10-18T22:30:05.361Z,12.70
2022-10-18T22:40:12.079Z,12.70
2022-10-18T22:50:13.968Z,12.60
2022-10-18T23:00:17.457Z,12.60
2022-10-18T23:10:19.351Z,12.50
2022-10-18T23:20:22.687Z,12.50
2022-10-18T23:30:24.596Z,12.50
2022-10-18T23:40:27.981Z,12.50
2022-10-18T23:50:29.873Z,12.50
